createdAt,value
2022-10-21T00:02:10.953Z,12.53
2022-10-21T00:07:14.230Z,12.23
2022-10-21T00:12:19.184Z,11.90
2022-10-21T00:17:22.682Z,13.30
2022-10-21T00:22:26.036Z,14.85
2022-10-21T00:27:30.961Z,14.17
2022-10-21T00:32:34.810Z,15.25
2022-10-21T00:37:38.447Z,14.37
2022-10-21T00:47:53.262Z,15.25
2022-10-21T00:52:58.684Z,14.10
2022-10-21T00:58:04.976Z,14.85
2022-10-21T01:03:08.318Z,16.02
2022-10-21T01:08:11.686Z,13.85
2022-10-21T01:13:26.708Z,14.57
2022-10-21T01:18:36.273Z,13.45
2022-10-21T01:24:12.578Z,13.57
2022-10-21T01:29:46.756Z,14.48
2022-10-21T01:34:59.133Z,12.63
2022-10-21T01:40:10.132Z,11.10
2022-10-21T01:45:19.861Z,13.48
2022-10-21T01:50:28.491Z,12.05
2022-10-21T01:55:33.699Z,11.00
2022-10-21T02:00:38.539Z,10.87
2022-10-21T02:05:43.420Z,11.02
2022-10-21T02:10:49.821Z,10.90
2022-10-21T02:15:57.406Z,11.67
2022-10-21T02:21:07.474Z,9.98
2022-10-21T02:26:11.407Z,11.80
2022-10-21T02:31:38.793Z,11.38
2022-10-21T02:36:53.396Z,11.38
2022-10-21T02:41:59.279Z,11.23
2022-10-21T02:47:03.940Z,11.02
2022-10-21T02:52:08.678Z,12.13
2022-10-21T02:57:11.939Z,12.10
2022-10-21T03:02:15.357Z,12.93
2022-10-21T03:07:20.034Z,12.40
2022-10-21T03:12:23.332Z,12.32
2022-10-21T03:17:26.598Z,13.02
2022-10-21T03:22:31.270Z,13.43
2022-10-21T03:27:35.100Z,12.60
2022-10-21T03:32:38.877Z,15.07
2022-10-21T03:37:43.702Z,13.85
2022-10-21T03:42:46.966Z,12.77
2022-10-21T03:47:50.237Z,15.57
2022-10-21T03:52:55.515Z,13.93
2022-10-21T03:57:58.839Z,12.35
2022-10-21T04:03:02.182Z,15.02
2022-10-21T04:08:07.015Z,15.35
2022-10-21T04:13:10.297Z,18.15
2022-10-21T04:18:13.557Z,16.05
2022-10-21T04:23:18.193Z,22.80
2022-10-21T04:28:21.506Z,15.13
2022-10-21T04:33:24.965Z,13.98
2022-10-21T04:38:29.680Z,14.52
2022-10-21T04:43:33.026Z,14.67
2022-10-21T04:48:36.276Z,13.77
2022-10-21T04:53:40.955Z,13.97
2022-10-21T04:58:44.233Z,13.85
2022-10-21T05:03:47.569Z,15.10
2022-10-21T05:08:52.270Z,17.10
2022-10-21T05:13:55.621Z,13.70
2022-10-21T05:18:58.892Z,16.30
2022-10-21T05:24:03.682Z,16.10
2022-10-21T05:29:06.972Z,14.82
2022-10-21T05:34:10.223Z,15.07
2022-10-21T05:39:14.858Z,16.30
2022-10-21T05:44:18.126Z,15.93
2022-10-21T05:49:21.390Z,13.95
2022-10-21T05:54:26.087Z,15.15
2022-10-21T05:59:29.341Z,17.07
2022-10-21T06:04:36.412Z,16.97
2022-10-21T06:09:43.553Z,16.65
2022-10-21T06:14:46.882Z,17.42
2022-10-21T06:19:51.076Z,18.65
2022-10-21T06:24:55.920Z,18.17
2022-10-21T06:29:59.212Z,17.43
2022-10-21T06:35:02.507Z,17.85
2022-10-21T06:40:08.342Z,16.65
2022-10-21T06:45:12.270Z,17.33
2022-10-21T06:50:15.635Z,15.55
2022-10-21T06:55:20.381Z,13.38
2022-10-21T07:00:23.781Z,16.37
2022-10-21T07:05:27.140Z,15.40
2022-10-21T07:10:31.756Z,15.17
2022-10-21T07:15:35.049Z,15.70
2022-10-21T07:20:38.384Z,13.25
2022-10-21T07:25:43.039Z,11.60
2022-10-21T07:30:46.638Z,12.55
2022-10-21T07:35:49.906Z,11.83
2022-10-21T07:40:54.541Z,13.20
2022-10-21T07:46:01.845Z,14.13
2022-10-21T07:51:10.533Z,13.63
2022-10-21T07:56:16.912Z,12.80
2022-10-21T08:01:21.296Z,11.13
2022-10-21T08:06:26.227Z,10.48
2022-10-21T08:11:33.449Z,9.37
2022-10-21T08:16:37.675Z,9.30
2022-10-21T08:21:40.927Z,9.23
2022-10-21T08:26:45.598Z,9.05
2022-10-21T08:31:48.865Z,7.65
2022-10-21T08:36:52.138Z,7.88
2022-10-21T08:42:07.141Z,9.57
2022-10-21T08:47:22.125Z,8.20
2022-10-21T08:52:32.282Z,7.90
2022-10-21T08:57:37.470Z,9.10
2022-10-21T09:02:54.773Z,7.85
2022-10-21T09:08:13.770Z,9.67
2022-10-21T09:13:26.599Z,11.40
2022-10-21T09:18:47.164Z,9.20
2022-10-21T09:24:11.474Z,8.90
2022-10-21T09:29:26.877Z,8.23
2022-10-21T09:39:53.750Z,7.75
2022-10-21T10:10:41.834Z,7.80
2022-10-21T11:48:32.546Z,6.80
2022-10-21T11:53:48.962Z,6.68
2022-10-21T11:59:05.875Z,9.45
2022-10-21T12:04:34.567Z,7.53
2022-10-21T12:09:43.028Z,7.67
2022-10-21T12:14:51.015Z,8.32
2022-10-21T12:20:00.553Z,9.00
2022-10-21T12:25:18.431Z,9.88
2022-10-21T12:30:26.552Z,7.63
2022-10-21T12:35:45.449Z,9.27
2022-10-21T12:40:50.384Z,8.80
2022-10-21T12:46:05.792Z,22.10
2022-10-21T12:51:21.178Z,8.83
2022-10-21T12:56:31.610Z,9.88
2022-10-21T13:01:42.221Z,7.63
2022-10-21T13:06:57.740Z,9.30
2022-10-21T13:12:05.902Z,10.80
2022-10-21T13:17:46.197Z,10.75
2022-10-21T13:23:01.760Z,9.50
2022-10-21T13:28:20.856Z,7.97
2022-10-21T13:33:27.021Z,6.72
2022-10-21T13:38:34.902Z,7.78
2022-10-21T13:43:40.892Z,7.95
2022-10-21T13:48:46.847Z,6.73
2022-10-21T13:53:55.970Z,8.30
2022-10-21T13:58:59.550Z,10.50
2022-10-21T14:04:14.745Z,10.60
2022-10-21T14:09:22.021Z,7.93
2022-10-21T14:14:26.923Z,9.27
2022-10-21T14:19:35.459Z,9.40
2022-10-21T14:24:43.031Z,8.38
2022-10-21T14:29:46.746Z,9.02
2022-10-21T14:35:02.429Z,10.30
2022-10-21T14:40:20.423Z,8.77
2022-10-21T14:45:27.677Z,7.70
2022-10-21T14:50:31.073Z,9.07
2022-10-21T14:55:35.793Z,8.93
2022-10-21T15:00:41.666Z,15.05
2022-10-21T15:05:49.165Z,13.80
2022-10-21T15:11:14.636Z,11.77
2022-10-21T15:16:20.922Z,8.53
2022-10-21T15:21:34.294Z,9.63
2022-10-21T15:26:41.926Z,9.60
2022-10-21T15:31:45.322Z,9.50
2022-10-21T15:36:48.604Z,12.07
2022-10-21T15:41:55.260Z,9.77
2022-10-21T15:47:01.042Z,11.93
2022-10-21T15:52:04.866Z,12.95
2022-10-21T15:57:17.086Z,15.25
2022-10-21T16:02:20.366Z,18.95
2022-10-21T16:07:29.445Z,14.52
2022-10-21T16:12:34.294Z,15.37
2022-10-21T16:17:37.725Z,15.50
2022-10-21T16:22:41.394Z,14.90
2022-10-21T16:27:55.776Z,13.63
2022-10-21T16:33:00.116Z,16.73
2022-10-21T16:38:03.469Z,15.35
2022-10-21T16:43:08.149Z,15.15
2022-10-21T16:48:11.705Z,14.88
2022-10-21T16:53:17.855Z,16.73
2022-10-21T16:58:22.521Z,16.33
2022-10-21T17:03:26.219Z,18.50
2022-10-21T17:08:29.711Z,20.50
2022-10-21T17:13:34.451Z,21.73
2022-10-21T17:18:37.962Z,19.52
2022-10-21T17:23:41.501Z,17.52
2022-10-21T17:28:46.569Z,19.17
2022-10-21T17:33:50.907Z,20.73
2022-10-21T17:38:54.206Z,20.15
2022-10-21T17:44:01.894Z,21.45
2022-10-21T17:49:05.394Z,21.67
2022-10-21T17:54:08.663Z,22.70
2022-10-21T17:59:13.502Z,21.45
2022-10-21T18:04:16.904Z,23.93
2022-10-21T18:09:20.273Z,23.47
2022-10-21T18:14:24.981Z,22.87
2022-10-21T18:19:30.873Z,21.13
2022-10-21T18:24:36.307Z,21.80
2022-10-21T18:29:45.869Z,21.27
2022-10-21T18:34:51.019Z,22.10
2022-10-21T18:39:56.791Z,23.03
2022-10-21T18:45:03.642Z,23.23
2022-10-21T18:50:08.490Z,25.00
2022-10-21T18:55:12.004Z,23.25
2022-10-21T19:00:16.849Z,23.67
2022-10-21T19:05:20.309Z,23.33
2022-10-21T19:10:23.846Z,27.27
2022-10-21T19:15:29.405Z,21.37
2022-10-21T19:20:32.941Z,21.05
2022-10-21T19:25:36.281Z,20.83
2022-10-21T19:30:40.973Z,24.60
2022-10-21T19:35:44.233Z,23.42
2022-10-21T19:45:58.496Z,23.38
2022-10-21T19:51:01.890Z,26.03
2022-10-21T19:56:06.499Z,20.23
2022-10-21T20:01:13.266Z,22.02
2022-10-21T20:06:19.596Z,20.48
2022-10-21T20:11:23.500Z,23.50
2022-10-21T20:16:30.048Z,23.35
2022-10-21T20:21:34.624Z,23.33
2022-10-21T20:31:47.739Z,24.70
2022-10-21T20:36:50.994Z,27.23
2022-10-21T20:41:54.385Z,24.63
2022-10-21T20:46:59.571Z,25.77
2022-10-21T20:52:03.257Z,25.80
2022-10-21T20:57:06.645Z,24.90
2022-10-21T21:02:11.728Z,28.08
2022-10-21T21:07:16.484Z,25.47
2022-10-21T21:12:20.359Z,29.55
2022-10-21T21:17:25.378Z,25.90
2022-10-21T21:22:28.771Z,28.23
2022-10-21T21:27:32.328Z,29.58
2022-10-21T21:32:37.137Z,29.33
2022-10-21T21:37:40.548Z,27.60
2022-10-21T21:42:44.131Z,29.00
2022-10-21T21:47:49.127Z,27.60
2022-10-21T21:52:52.504Z,29.27
2022-10-21T21:57:56.027Z,29.17
2022-10-21T22:03:00.981Z,29.17
2022-10-21T22:08:05.394Z,27.70
2022-10-21T22:13:09.481Z,31.38
2022-10-21T22:18:14.766Z,30.80
2022-10-21T22:23:19.980Z,28.77
2022-10-21T22:28:23.301Z,27.97
2022-10-21T22:33:28.541Z,28.50
2022-10-21T22:38:31.881Z,27.90
2022-10-21T22:43:35.264Z,23.90
2022-10-21T22:48:39.976Z,23.95
2022-10-21T22:53:43.330Z,28.35
2022-10-21T22:58:46.628Z,26.42
2022-10-21T23:03:51.321Z,23.90
2022-10-21T23:08:54.792Z,21.90
2022-10-21T23:14:03.230Z,27.67
2022-10-21T23:24:21.286Z,24.98
2022-10-21T23:29:24.583Z,22.98
2022-10-21T23:34:30.373Z,20.42
2022-10-21T23:39:34.149Z,22.08
2022-10-21T23:44:37.455Z,19.40
2022-10-21T23:49:42.398Z,17.50
2022-10-21T23:54:45.692Z,19.07
2022-10-21T23:59:51.146Z,19.13
